Time;durP1;ratioP1;P1;durP2;ratioP2;P2;SDS_P1;SDS_P2;PMS_P1;PMS_P2;Temp;Humidity;BMP_temperature;BMP_pressure;BME280_temperature;BME280_humidity;BME280_pressure;Samples;Min_cycle;Max_cycle;Signal;HPM_P1;HPM_P2
2021/12/06 00:12:43;;;;;;;50.55;21.60;;;;;;;2.22;98.33;99859.08;714098;1176;114808;-75
2021/12/06 00:27:45;;;;;;;47.27;18.73;;;;;;;2.22;98.57;99866.00;714147;1178;114439;-75
2021/12/06 00:42:48;;;;;;;38.65;18.50;;;;;;;2.18;98.96;99875.72;714437;1174;113666;-75
2021/12/06 00:57:52;;;;;;;47.37;18.03;;;;;;;2.24;98.66;99890.05;714037;1200;114125;-74
2021/12/06 01:12:56;;;;;;;43.90;15.85;;;;;;;2.17;98.12;99905.11;714325;1205;113727;-74
2021/12/06 01:43:07;;;;;;;43.50;16.23;;;;;;;1.86;96.84;99877.61;714033;1200;113654;-74
2021/12/06 01:58:10;;;;;;;43.13;17.00;;;;;;;1.79;96.77;99890.89;714263;1199;114326;-74
2021/12/06 02:13:12;;;;;;;40.38;16.00;;;;;;;1.74;96.73;99907.60;714277;1200;113751;-74
2021/12/06 02:28:15;;;;;;;34.95;15.03;;;;;;;1.62;96.26;99914.30;714143;1200;113527;-74
2021/12/06 02:43:18;;;;;;;40.68;14.20;;;;;;;1.56;96.47;99941.34;714245;1200;115264;-73
2021/12/06 03:13:40;;;;;;;32.10;12.03;;;;;;;1.47;95.78;99950.44;713998;1200;114055;-74
2021/12/06 03:28:44;;;;;;;29.83;12.40;;;;;;;1.39;96.07;99962.14;714405;1200;114713;-73
2021/12/06 03:43:48;;;;;;;43.40;15.95;;;;;;;1.35;96.40;99984.73;717006;1186;113813;-73
2021/12/06 03:58:50;;;;;;;44.45;14.95;;;;;;;1.31;96.33;99990.98;715925;1205;113918;-73
2021/12/06 04:13:52;;;;;;;30.88;12.95;;;;;;;1.25;96.41;100006.81;714953;1177;113812;-73
2021/12/06 04:29:01;;;;;;;36.83;13.60;;;;;;;1.27;96.69;100007.58;715043;1190;114591;-71
2021/12/06 04:44:04;;;;;;;41.57;14.77;;;;;;;1.24;95.94;100013.75;716471;1177;113730;-70
2021/12/06 04:59:16;;;;;;;53.03;20.63;;;;;;;1.20;97.08;100016.56;715513;1200;114061;-71
2021/12/06 05:14:18;;;;;;;52.70;19.80;;;;;;;1.11;96.83;100028.21;714620;1200;114697;-71
2021/12/06 05:29:25;;;;;;;49.75;20.15;;;;;;;1.07;97.63;100044.80;714612;1202;114427;-71
2021/12/06 05:44:29;;;;;;;114.53;40.87;;;;;;;0.98;97.75;100061.63;714481;1200;114655;-71
2021/12/06 05:59:31;;;;;;;133.75;56.23;;;;;;;0.96;98.16;100081.52;714106;1202;115438;-71
2021/12/06 06:14:34;;;;;;;73.38;31.23;;;;;;;0.90;97.33;100089.58;716840;1166;114800;-70
2021/12/06 06:29:37;;;;;;;56.23;23.70;;;;;;;0.91;97.75;100094.69;713780;1204;115199;-71
2021/12/06 06:44:39;;;;;;;53.38;23.73;;;;;;;1.01;97.63;100089.88;714230;1176;113813;-71
2021/12/06 06:59:41;;;;;;;63.77;24.40;;;;;;;0.91;97.30;100104.17;714948;1202;114714;-70
2021/12/06 07:14:47;;;;;;;50.35;20.80;;;;;;;0.80;97.85;100113.29;713902;1200;115381;-71
2021/12/06 07:29:49;;;;;;;72.68;28.13;;;;;;;0.76;98.06;100110.95;713754;1200;115087;-74
2021/12/06 07:44:52;;;;;;;52.65;22.48;;;;;;;0.83;98.21;100135.55;714047;1203;115501;-74
2021/12/06 07:59:55;;;;;;;75.93;26.90;;;;;;;0.79;98.26;100157.27;715111;1205;113700;-73
2021/12/06 08:14:57;;;;;;;45.70;19.65;;;;;;;0.91;97.75;100166.16;714617;1200;114349;-72
2021/12/06 08:30:00;;;;;;;59.87;24.17;;;;;;;0.80;97.76;100171.87;714063;1200;114941;-73
2021/12/06 08:45:05;;;;;;;65.25;23.58;;;;;;;0.67;96.98;100176.78;713892;1204;114366;-73
2021/12/06 09:00:17;;;;;;;63.50;26.23;;;;;;;0.72;97.68;100192.90;713917;1200;114106;-72
2021/12/06 09:15:21;;;;;;;111.45;34.85;;;;;;;0.67;98.09;100207.77;713891;1200;114458;-72
2021/12/06 09:30:27;;;;;;;40.70;17.70;;;;;;;0.71;98.00;100227.38;713613;1200;115278;-71
2021/12/06 09:45:31;;;;;;;128.95;40.85;;;;;;;0.46;97.56;100231.14;714054;1205;115407;-71
2021/12/06 10:00:41;;;;;;;64.80;25.80;;;;;;;0.49;97.30;100230.98;714145;1200;114282;-73
2021/12/06 10:15:44;;;;;;;57.87;24.40;;;;;;;0.76;97.37;100225.41;714294;1205;115364;-71
2021/12/06 10:30:52;;;;;;;28.15;14.03;;;;;;;0.83;96.10;100208.72;713850;1199;114401;-71
2021/12/06 10:45:56;;;;;;;32.68;15.93;;;;;;;0.95;96.30;100185.77;714459;1202;115317;-70
2021/12/06 11:01:15;;;;;;;81.67;24.90;;;;;;;0.86;95.20;100191.38;714909;1200;114293;-70
2021/12/06 11:16:22;;;;;;;69.10;21.60;;;;;;;1.07;95.16;100182.59;714691;1200;114216;-71
2021/12/06 11:31:24;;;;;;;85.10;32.30;;;;;;;1.69;94.19;100174.27;714829;1201;114488;-74
2021/12/06 11:46:32;;;;;;;69.18;25.10;;;;;;;1.63;92.83;100198.68;714669;1200;114218;-71
2021/12/06 12:01:44;;;;;;;277.40;77.58;;;;;;;1.43;92.93;100212.64;714812;1200;113925;-71
2021/12/06 12:16:48;;;;;;;133.73;42.08;;;;;;;1.30;92.28;100220.18;714747;1200;113920;-71
2021/12/06 12:32:01;;;;;;;109.33;36.70;;;;;;;0.88;92.54;100233.48;714786;1200;115396;-70
2021/12/06 12:47:13;;;;;;;145.17;40.80;;;;;;;0.46;93.02;100230.28;714649;1200;114094;-70
2021/12/06 13:02:34;;;;;;;127.15;41.33;;;;;;;0.53;94.09;100248.90;714791;1202;114152;-70
2021/12/06 13:17:46;;;;;;;98.57;32.17;;;;;;;0.40;95.00;100259.80;714609;1179;114983;-70
2021/12/06 13:33:05;;;;;;;63.03;26.70;;;;;;;0.30;94.82;100274.89;714625;1180;115297;-70
2021/12/06 13:48:18;;;;;;;53.60;20.60;;;;;;;0.21;94.88;100269.29;715206;1200;114976;-70
2021/12/06 14:03:36;;;;;;;76.00;25.93;;;;;;;0.21;93.95;100264.13;715138;1179;114580;-70
2021/12/06 14:18:40;;;;;;;72.68;31.10;;;;;;;0.01;93.58;100250.38;714965;1177;115501;-73
2021/12/06 14:33:44;;;;;;;56.10;23.47;;;;;;;-0.16;94.22;100258.86;715628;1200;114343;-74
2021/12/06 14:48:48;;;;;;;74.23;28.43;;;;;;;-0.04;94.70;100257.48;715114;1177;114396;-72
2021/12/06 15:04:38;;;;;;;79.75;30.73;;;;;;;-0.12;94.03;100255.27;714800;1206;114672;-69
2021/12/06 15:19:42;;;;;;;89.48;29.98;;;;;;;-0.04;93.93;100265.22;714806;1199;114216;-70
2021/12/06 15:34:47;;;;;;;59.30;21.50;;;;;;;0.04;93.69;100278.64;714843;1200;114177;-71
2021/12/06 15:49:54;;;;;;;49.63;22.90;;;;;;;-0.04;93.77;100298.75;714902;1177;114419;-71
2021/12/06 16:05:09;;;;;;;54.80;21.38;;;;;;;-0.11;92.83;100315.41;714918;1199;113997;-71
2021/12/06 16:20:12;;;;;;;90.55;29.98;;;;;;;-0.21;93.18;100310.64;714648;1202;114253;-71
2021/12/06 16:35:16;;;;;;;115.05;36.10;;;;;;;-0.21;92.03;100310.64;714872;1178;114829;-70
2021/12/06 16:50:28;;;;;;;91.10;32.57;;;;;;;-0.17;92.01;100319.92;714824;1200;115465;-71
2021/12/06 17:05:57;;;;;;;68.20;25.00;;;;;;;-0.30;90.80;100315.34;714693;1200;115629;-70
2021/12/06 17:21:05;;;;;;;55.17;21.60;;;;;;;-0.33;90.79;100326.66;715350;1178;114040;-70
2021/12/06 17:36:07;;;;;;;75.57;26.47;;;;;;;-0.43;91.25;100351.95;715066;1205;114146;-70
2021/12/06 17:51:12;;;;;;;66.80;24.87;;;;;;;-0.33;91.38;100352.44;715819;1177;113990;-71
2021/12/06 18:06:15;;;;;;;53.85;21.80;;;;;;;-0.58;90.94;100361.16;715392;1177;113579;-71
2021/12/06 18:21:18;;;;;;;63.83;25.10;;;;;;;-0.73;90.10;100354.87;715316;1188;114335;-72
2021/12/06 18:36:22;;;;;;;56.28;23.45;;;;;;;-0.61;89.81;100352.70;715579;1177;114298;-71
2021/12/06 18:51:26;;;;;;;59.35;23.80;;;;;;;-0.62;89.76;100349.30;715055;1177;114276;-71
2021/12/06 19:06:29;;;;;;;83.53;26.73;;;;;;;-0.72;89.59;100346.25;715481;1178;114604;-70
2021/12/06 19:21:32;;;;;;;72.43;28.90;;;;;;;-0.72;90.38;100355.72;715971;1200;114348;-70
2021/12/06 19:36:36;;;;;;;92.53;30.35;;;;;;;-0.70;90.18;100349.61;718726;1175;114795;-72
2021/12/06 19:51:40;;;;;;;55.68;23.15;;;;;;;-0.79;89.94;100343.97;715959;1178;114970;-70
2021/12/06 20:06:44;;;;;;;38.08;16.73;;;;;;;-0.96;89.51;100345.49;715419;1175;114347;-72
2021/12/06 20:21:47;;;;;;;99.35;42.63;;;;;;;-0.95;88.67;100336.02;715280;1185;114592;-70
2021/12/06 20:36:50;;;;;;;64.35;25.00;;;;;;;-1.07;88.86;100335.61;714822;1200;114129;-70
2021/12/06 20:51:53;;;;;;;78.70;31.87;;;;;;;-0.97;90.15;100330.93;715289;1200;114977;-71
2021/12/06 21:06:58;;;;;;;52.23;21.55;;;;;;;-0.99;89.83;100330.17;720026;1200;114447;-70
2021/12/06 21:22:04;;;;;;;61.90;23.95;;;;;;;-0.97;89.69;100330.93;714478;1203;115247;-71
2021/12/06 21:37:11;;;;;;;44.53;19.15;;;;;;;-0.98;90.17;100336.14;714587;1177;114303;-71
2021/12/06 21:52:15;;;;;;;64.95;25.43;;;;;;;-0.88;89.71;100346.02;715051;1200;114229;-71
2021/12/06 22:07:17;;;;;;;44.00;18.13;;;;;;;-1.09;89.09;100342.55;715501;1177;114062;-71
2021/12/06 22:22:20;;;;;;;38.07;17.33;;;;;;;-1.25;89.79;100338.90;714378;1186;114495;-71
2021/12/06 22:37:22;;;;;;;43.13;18.73;;;;;;;-1.25;89.10;100334.58;714139;1188;114249;-71
2021/12/06 22:52:25;;;;;;;89.48;28.65;;;;;;;-1.26;89.71;100329.48;714326;1199;115624;-71
2021/12/06 23:07:28;;;;;;;44.40;19.90;;;;;;;-1.42;89.83;100335.21;714022;1174;114468;-71
2021/12/06 23:22:31;;;;;;;54.87;21.40;;;;;;;-1.60;90.00;100326.43;714280;1174;114667;-71
2021/12/06 23:37:38;;;;;;;36.98;15.50;;;;;;;-1.82;89.49;100336.69;714141;1176;116401;-71
2021/12/06 23:52:40;;;;;;;47.23;18.33;;;;;;;-1.80;89.36;100336.63;714177;1200;114287;-72
